Time;durP1;ratioP1;P1;durP2;ratioP2;P2;SDS_P1;SDS_P2;PMS_P1;PMS_P2;Temp;Humidity;BMP_temperature;BMP_pressure;BME280_temperature;BME280_humidity;BME280_pressure;Samples;Min_cycle;Max_cycle;Signal;HPM_P1;HPM_P2
2022/08/13 09:24:37;;;;;;;4.57;1.98;;;25.20;69.60;;;;;;6889446;27;20448;-54
2022/08/13 09:29:56;;;;;;;3.90;1.80;;;24.40;67.70;;;;;;8276525;27;20409;-54
2022/08/13 09:33:58;;;;;;;4.88;1.98;;;24.20;67.10;;;;;;8386967;28;20048;-55
2022/08/13 09:38:02;;;;;;;4.07;1.80;;;24.20;68.20;;;;;;8333047;28;20050;-56
2022/08/13 09:42:10;;;;;;;3.53;1.90;;;24.20;66.90;;;;;;8290052;28;20065;-55
2022/08/13 09:48:17;;;;;;;;;;;24.20;67.90;;;;;;8454488;27;20396;-56
2022/08/13 09:52:20;;;;;;;;;;;24.20;67.50;;;;;;8456382;28;19932;-56
2022/08/13 09:56:22;;;;;;;;;;;24.20;67.50;;;;;;8455666;28;19967;-55
2022/08/13 10:00:27;;;;;;;;;;;24.20;68.00;;;;;;8455575;28;19930;-56
2022/08/13 18:06:08;;;;;;;6.20;3.60;;;28.10;58.10;;;;;;8478122;27;20381;-74
2022/08/13 18:10:10;;;;;;;3.72;2.00;;;29.80;52.20;;;;;;8436541;28;20044;-73
2022/08/13 18:14:17;;;;;;;3.60;1.90;;;30.40;49.80;;;;;;8426842;28;20045;-76
2022/08/13 18:18:19;;;;;;;4.45;1.70;;;30.70;49.20;;;;;;8422078;28;20044;-77
2022/08/13 18:22:27;;;;;;;5.43;2.80;;;30.80;50.10;;;;;;8439086;28;20052;-76
2022/08/13 18:26:30;;;;;;;4.28;1.90;;;30.70;48.30;;;;;;8441644;28;20047;-75
2022/08/13 18:30:33;;;;;;;4.03;1.80;;;30.40;47.60;;;;;;8441516;28;20483;-75
2022/08/13 18:34:35;;;;;;;3.03;1.63;;;30.30;48.30;;;;;;8442132;28;20547;-74
2022/08/13 18:38:39;;;;;;;4.03;2.15;;;29.90;46.20;;;;;;8447908;28;20047;-77
2022/08/13 18:42:42;;;;;;;4.82;1.70;;;29.60;47.40;;;;;;8441463;28;20100;-78
2022/08/13 18:46:44;;;;;;;6.57;1.95;;;29.20;47.20;;;;;;8428135;28;20044;-79
2022/08/13 18:50:47;;;;;;;4.35;2.10;;;29.20;47.10;;;;;;8430357;28;20503;-77
2022/08/13 18:54:50;;;;;;;2.90;1.73;;;29.10;48.00;;;;;;8435774;28;20051;-79
2022/08/13 18:58:54;;;;;;;4.28;1.60;;;29.00;49.80;;;;;;8437535;28;20044;-76
2022/08/13 19:02:56;;;;;;;3.20;1.60;;;28.90;51.30;;;;;;8441081;28;20130;-79
2022/08/13 19:07:01;;;;;;;5.05;1.70;;;28.70;50.30;;;;;;8438516;28;20043;-79
2022/08/13 19:11:04;;;;;;;5.53;1.95;;;28.50;50.20;;;;;;8439338;28;20463;-79
2022/08/13 19:15:11;;;;;;;5.35;2.45;;;28.30;49.00;;;;;;8454833;28;20048;-78
2022/08/13 19:19:13;;;;;;;4.13;1.77;;;28.20;49.70;;;;;;8434058;28;20040;-75
2022/08/13 19:23:16;;;;;;;5.68;2.53;;;28.00;49.00;;;;;;8426716;28;20050;-74
2022/08/13 19:27:19;;;;;;;4.70;2.10;;;27.80;48.90;;;;;;8411812;28;20048;-75
2022/08/13 19:31:21;;;;;;;5.18;1.90;;;27.80;51.30;;;;;;8417967;28;20040;-80
2022/08/13 19:35:28;;;;;;;4.00;1.90;;;27.70;49.80;;;;;;8420245;28;20056;-75
2022/08/13 19:39:31;;;;;;;5.30;1.60;;;27.60;50.60;;;;;;8397230;28;20047;-74
2022/08/13 19:43:34;;;;;;;3.15;1.58;;;27.40;50.50;;;;;;8418723;28;20159;-77
2022/08/13 19:47:40;;;;;;;6.63;1.90;;;27.20;50.30;;;;;;8379928;28;20044;-75
2022/08/13 19:51:47;;;;;;;4.03;2.10;;;27.10;51.60;;;;;;8415381;28;20049;-79
2022/08/13 19:55:50;;;;;;;4.60;2.00;;;26.80;52.70;;;;;;8420855;28;20043;-76
2022/08/13 19:59:59;;;;;;;3.40;1.83;;;26.80;51.40;;;;;;8397398;28;20399;-77
2022/08/13 20:04:01;;;;;;;3.53;1.92;;;26.50;51.40;;;;;;8392311;28;20403;-74
2022/08/13 20:08:04;;;;;;;3.40;1.73;;;26.50;51.50;;;;;;8397505;28;20470;-76
2022/08/13 20:12:07;;;;;;;5.25;1.80;;;26.30;50.80;;;;;;8402836;28;20406;-77
2022/08/13 20:16:11;;;;;;;4.70;1.83;;;26.30;51.40;;;;;;8413422;28;20059;-78
2022/08/13 20:20:16;;;;;;;3.03;1.80;;;26.30;51.30;;;;;;8394792;28;20135;-77
2022/08/13 20:24:20;;;;;;;3.85;1.83;;;26.30;51.40;;;;;;8409972;28;20059;-79
2022/08/13 20:28:22;;;;;;;3.65;2.00;;;26.10;51.30;;;;;;8404074;28;20081;-77
2022/08/13 20:32:25;;;;;;;5.30;1.70;;;26.00;51.40;;;;;;8409220;28;20052;-77
2022/08/13 20:36:27;;;;;;;4.50;2.10;;;25.90;51.90;;;;;;8412514;28;20090;-78
2022/08/13 20:40:30;;;;;;;4.55;1.80;;;25.90;51.90;;;;;;8413700;28;20041;-76
2022/08/13 20:44:32;;;;;;;3.80;1.60;;;25.90;53.10;;;;;;8412487;28;20056;-78
2022/08/13 20:48:35;;;;;;;4.97;1.83;;;25.80;53.10;;;;;;8414346;28;20520;-77
2022/08/13 20:52:38;;;;;;;4.53;1.80;;;25.80;53.50;;;;;;8410446;28;20070;-76
2022/08/13 20:56:42;;;;;;;4.80;1.88;;;25.70;56.10;;;;;;8415144;28;20052;-78
2022/08/13 21:00:44;;;;;;;4.88;1.70;;;25.50;56.20;;;;;;8415121;28;20036;-76
2022/08/13 21:04:47;;;;;;;3.10;1.70;;;25.30;55.60;;;;;;8419802;28;20048;-75
2022/08/13 21:08:49;;;;;;;6.30;2.10;;;25.10;56.20;;;;;;8416233;28;20051;-77
2022/08/13 21:12:54;;;;;;;3.70;1.85;;;25.00;55.00;;;;;;8424813;28;20501;-76
2022/08/13 21:16:56;;;;;;;3.75;1.92;;;24.80;57.20;;;;;;8422869;28;20044;-78
2022/08/13 21:21:00;;;;;;;4.18;2.08;;;24.80;56.90;;;;;;8421333;28;20055;-76
2022/08/13 21:25:02;;;;;;;5.28;2.40;;;24.70;57.20;;;;;;8423552;28;20055;-76
2022/08/13 21:29:04;;;;;;;3.97;2.38;;;24.50;57.70;;;;;;8418056;28;20512;-77
2022/08/13 21:33:07;;;;;;;3.85;2.38;;;24.40;58.60;;;;;;8416826;28;20055;-77
2022/08/13 21:37:11;;;;;;;5.57;2.30;;;24.40;57.70;;;;;;8415925;28;20048;-78
2022/08/13 21:41:13;;;;;;;4.47;2.70;;;24.20;59.70;;;;;;8424115;28;20040;-79
2022/08/13 21:45:15;;;;;;;4.22;2.20;;;24.00;58.90;;;;;;8397563;28;20048;-77
2022/08/13 21:49:17;;;;;;;4.85;2.10;;;23.70;60.70;;;;;;8415134;28;20055;-78
2022/08/13 21:53:22;;;;;;;4.00;2.33;;;23.70;57.80;;;;;;8412162;28;20727;-76
2022/08/13 21:57:24;;;;;;;4.18;2.00;;;23.70;58.80;;;;;;8415793;28;20506;-76
2022/08/13 22:01:26;;;;;;;4.80;2.25;;;23.70;59.10;;;;;;8416096;28;20471;-77
2022/08/13 22:05:28;;;;;;;5.18;2.50;;;23.70;59.10;;;;;;8419716;28;20052;-77
2022/08/13 22:09:32;;;;;;;4.10;2.00;;;23.70;59.10;;;;;;8420542;28;20044;-78
2022/08/13 22:13:35;;;;;;;5.00;2.30;;;23.70;61.00;;;;;;8418930;28;20056;-78
2022/08/13 22:17:37;;;;;;;4.25;2.25;;;23.50;60.60;;;;;;8405404;28;20044;-75
2022/08/13 22:21:39;;;;;;;4.07;2.42;;;23.20;61.60;;;;;;8420025;28;20040;-77
2022/08/13 22:25:45;;;;;;;5.03;2.65;;;23.10;62.00;;;;;;8416368;28;20048;-75
2022/08/13 22:34:07;;;;;;;4.77;2.50;;;22.90;62.10;;;;;;8427353;28;20052;-78
2022/08/13 22:38:09;;;;;;;4.82;2.25;;;22.90;62.70;;;;;;8421686;28;20056;-77
2022/08/13 22:42:13;;;;;;;4.57;2.25;;;22.90;61.60;;;;;;8421413;28;20382;-79
2022/08/13 22:46:15;;;;;;;4.70;2.28;;;22.70;62.00;;;;;;8402579;28;20071;-75
2022/08/13 22:50:17;;;;;;;3.30;2.30;;;22.60;62.20;;;;;;8422141;28;20040;-76
2022/08/13 22:54:20;;;;;;;3.42;2.30;;;22.60;62.50;;;;;;8427013;28;20048;-77
2022/08/13 22:58:23;;;;;;;4.70;2.25;;;22.50;62.60;;;;;;8426560;28;20056;-78
2022/08/13 23:02:25;;;;;;;3.50;2.20;;;22.50;63.10;;;;;;8421650;28;20064;-76
2022/08/13 23:06:27;;;;;;;4.88;2.30;;;22.50;63.70;;;;;;8412568;28;20073;-76
2022/08/13 23:10:30;;;;;;;4.65;2.20;;;22.50;64.10;;;;;;8418322;28;20048;-77
2022/08/13 23:14:33;;;;;;;4.60;2.35;;;22.50;64.50;;;;;;8415279;28;20040;-77
2022/08/13 23:18:35;;;;;;;7.38;2.60;;;22.50;64.60;;;;;;8421084;28;20410;-75
2022/08/13 23:22:42;;;;;;;3.70;2.22;;;22.40;65.10;;;;;;8421178;28;20040;-75
2022/08/13 23:26:44;;;;;;;3.90;2.20;;;22.20;65.40;;;;;;8422142;28;20147;-77
2022/08/13 23:30:48;;;;;;;4.45;2.10;;;22.10;66.40;;;;;;8418257;28;20517;-74
2022/08/13 23:34:50;;;;;;;3.50;2.35;;;22.10;66.70;;;;;;8429428;28;20071;-75
2022/08/13 23:38:52;;;;;;;4.47;2.40;;;22.00;67.00;;;;;;8421081;28;20047;-78
2022/08/13 23:42:56;;;;;;;7.18;2.50;;;22.00;67.00;;;;;;8420037;28;20047;-77
2022/08/13 23:46:59;;;;;;;4.47;2.20;;;21.90;67.30;;;;;;8414136;28;20082;-77
2022/08/13 23:51:01;;;;;;;5.45;2.55;;;21.90;67.80;;;;;;8418591;28;20052;-77
2022/08/13 23:55:06;;;;;;;5.20;2.15;;;21.70;68.30;;;;;;8413335;28;20059;-79
2022/08/13 23:59:08;;;;;;;5.63;2.33;;;21.70;68.40;;;;;;8425091;28;20413;-77
